CSN6144 ZBAD-ZYCC
Flight info
| Callsign | CSN6144 |
|---|---|
| Flight time | N/A |
| Altitude | 31100 |
| Route | DOTRA6K DOTRA B334 TGO G341 BUTET BUTET8A |
| Aircraft | A20N/M-SDE2E3FGHIRWXY/LB1 |
Departure
| Time | 2026-04-22 13:44 |
|---|---|
| Airport | Beijing Daxing International Airport (ZBAD) |
Arrival
| Time | N/A |
|---|---|
| Airport | Changchun Longjia International Airport (ZYCC) |
| Time | Latitude | Longitude | Altitude | Speed | Heading |
|---|---|---|---|---|---|
| 2026-04-22 13:12 | 39.50628 | 116.40432 | 90 ft | 0 kts | 78° |
| 2026-04-22 13:24 | 39.50627 | 116.40426 | 90 ft | 2 kts | 78° |
| 2026-04-22 13:25 | 39.50624 | 116.40407 | 91 ft | 2 kts | 78° |
| 2026-04-22 13:25 | 39.50621 | 116.40388 | 90 ft | 2 kts | 78° |
| 2026-04-22 13:25 | 39.50618 | 116.40369 | 90 ft | 2 kts | 78° |
| 2026-04-22 13:25 | 39.50615 | 116.40350 | 90 ft | 2 kts | 78° |
| 2026-04-22 13:26 | 39.50614 | 116.40331 | 90 ft | 2 kts | 114° |
| 2026-04-22 13:26 | 39.50619 | 116.40321 | 90 ft | 1 kts | 141° |
| 2026-04-22 13:26 | 39.50625 | 116.40317 | 90 ft | 0 kts | 143° |
| 2026-04-22 13:30 | 39.50623 | 116.40318 | 90 ft | 1 kts | 142° |
| 2026-04-22 13:30 | 39.50602 | 116.40340 | 90 ft | 6 kts | 142° |
| 2026-04-22 13:30 | 39.50557 | 116.40383 | 90 ft | 9 kts | 143° |
| 2026-04-22 13:31 | 39.50497 | 116.40441 | 90 ft | 11 kts | 143° |
| 2026-04-22 13:31 | 39.50433 | 116.40504 | 90 ft | 11 kts | 143° |
| 2026-04-22 13:31 | 39.50365 | 116.40569 | 90 ft | 12 kts | 154° |
| 2026-04-22 13:31 | 39.50278 | 116.40588 | 90 ft | 12 kts | 173° |
| 2026-04-22 13:32 | 39.50199 | 116.40601 | 90 ft | 8 kts | 172° |
| 2026-04-22 13:32 | 39.50153 | 116.40645 | 90 ft | 9 kts | 102° |
| 2026-04-22 13:32 | 39.50158 | 116.40736 | 90 ft | 10 kts | 83° |
| 2026-04-22 13:32 | 39.50168 | 116.40843 | 90 ft | 15 kts | 83° |
| 2026-04-22 13:33 | 39.50183 | 116.41004 | 90 ft | 20 kts | 82° |
| 2026-04-22 13:33 | 39.50201 | 116.41189 | 90 ft | 21 kts | 83° |
| 2026-04-22 13:33 | 39.50218 | 116.41374 | 90 ft | 20 kts | 83° |
| 2026-04-22 13:33 | 39.50235 | 116.41558 | 90 ft | 20 kts | 83° |
| 2026-04-22 13:34 | 39.50252 | 116.41738 | 90 ft | 19 kts | 82° |
| 2026-04-22 13:34 | 39.50269 | 116.41913 | 91 ft | 17 kts | 82° |
| 2026-04-22 13:34 | 39.50280 | 116.42033 | 90 ft | 11 kts | 83° |
| 2026-04-22 13:34 | 39.50292 | 116.42141 | 90 ft | 12 kts | 71° |
| 2026-04-22 13:35 | 39.50368 | 116.42170 | 90 ft | 13 kts | 353° |
| 2026-04-22 13:35 | 39.50464 | 116.42155 | 90 ft | 14 kts | 353° |
| 2026-04-22 13:35 | 39.50572 | 116.42139 | 90 ft | 16 kts | 353° |
| 2026-04-22 13:35 | 39.50696 | 116.42119 | 90 ft | 18 kts | 353° |
| 2026-04-22 13:36 | 39.50831 | 116.42097 | 90 ft | 20 kts | 353° |
| 2026-04-22 13:36 | 39.50974 | 116.42075 | 90 ft | 20 kts | 352° |
| 2026-04-22 13:36 | 39.51115 | 116.42053 | 90 ft | 20 kts | 353° |
| 2026-04-22 13:36 | 39.51253 | 116.42031 | 90 ft | 19 kts | 353° |
| 2026-04-22 13:37 | 39.51353 | 116.42016 | 90 ft | 11 kts | 353° |
| 2026-04-22 13:37 | 39.51404 | 116.42071 | 90 ft | 11 kts | 83° |
| 2026-04-22 13:37 | 39.51413 | 116.42179 | 90 ft | 12 kts | 83° |
| 2026-04-22 13:37 | 39.51424 | 116.42292 | 90 ft | 13 kts | 82° |
| 2026-04-22 13:38 | 39.51436 | 116.42413 | 90 ft | 13 kts | 83° |
| 2026-04-22 13:38 | 39.51460 | 116.42666 | 90 ft | 14 kts | 83° |
| 2026-04-22 13:38 | 39.51472 | 116.42799 | 90 ft | 15 kts | 83° |
| 2026-04-22 13:39 | 39.51485 | 116.42934 | 90 ft | 15 kts | 82° |
| 2026-04-22 13:39 | 39.51497 | 116.43054 | 90 ft | 7 kts | 81° |
| 2026-04-22 13:39 | 39.51535 | 116.43098 | 90 ft | 8 kts | 13° |
| 2026-04-22 13:39 | 39.51554 | 116.43104 | 90 ft | 0 kts | 13° |
| 2026-04-22 13:42 | 39.51555 | 116.43104 | 90 ft | 0 kts | 13° |
| 2026-04-22 13:42 | 39.51566 | 116.43108 | 90 ft | 3 kts | 13° |
| 2026-04-22 13:43 | 39.51595 | 116.43117 | 90 ft | 5 kts | 25° |
| 2026-04-22 13:43 | 39.51624 | 116.43163 | 90 ft | 7 kts | 57° |
| 2026-04-22 13:43 | 39.51649 | 116.43234 | 91 ft | 9 kts | 95° |
| 2026-04-22 13:43 | 39.51630 | 116.43343 | 90 ft | 21 kts | 103° |
| 2026-04-22 13:44 | 39.51544 | 116.43819 | 91 ft | 89 kts | 103° |
| 2026-04-22 13:44 | 39.51357 | 116.44862 | 91 ft | 147 kts | 103° |
| 2026-04-22 13:44 | 39.51116 | 116.46265 | 433 ft | 163 kts | 103° |
| 2026-04-22 13:44 | 39.50875 | 116.47704 | 1048 ft | 164 kts | 105° |
| 2026-04-22 13:45 | 39.50623 | 116.49117 | 1710 ft | 164 kts | 107° |
| 2026-04-22 13:45 | 39.50353 | 116.50580 | 2225 ft | 175 kts | 107° |
| 2026-04-22 13:45 | 39.50058 | 116.52175 | 2624 ft | 193 kts | 107° |
| 2026-04-22 13:45 | 39.49735 | 116.53935 | 3064 ft | 211 kts | 106° |
| 2026-04-22 13:46 | 39.49387 | 116.55866 | 3519 ft | 230 kts | 105° |
| 2026-04-22 13:46 | 39.49006 | 116.57980 | 3944 ft | 252 kts | 105° |
| 2026-04-22 13:46 | 39.48600 | 116.60252 | 4507 ft | 267 kts | 105° |
| 2026-04-22 13:46 | 39.48227 | 116.62630 | 4835 ft | 272 kts | 96° |
| 2026-04-22 13:47 | 39.48468 | 116.65025 | 4910 ft | 275 kts | 70° |
| 2026-04-22 13:47 | 39.49374 | 116.67217 | 4926 ft | 277 kts | 60° |
| 2026-04-22 13:47 | 39.50377 | 116.69358 | 4928 ft | 277 kts | 60° |
| 2026-04-22 13:47 | 39.51360 | 116.71476 | 4926 ft | 277 kts | 60° |
| 2026-04-22 13:48 | 39.52348 | 116.73646 | 4927 ft | 278 kts | 61° |
| 2026-04-22 13:48 | 39.53311 | 116.75791 | 4928 ft | 278 kts | 61° |
| 2026-04-22 13:48 | 39.54283 | 116.77969 | 5208 ft | 278 kts | 62° |
| 2026-04-22 13:48 | 39.55180 | 116.80194 | 5840 ft | 285 kts | 64° |
| 2026-04-22 13:49 | 39.56047 | 116.82479 | 6748 ft | 285 kts | 64° |
| 2026-04-22 13:49 | 39.56912 | 116.84785 | 7620 ft | 286 kts | 64° |
| 2026-04-22 13:49 | 39.57771 | 116.87073 | 8451 ft | 288 kts | 63° |
| 2026-04-22 13:49 | 39.58648 | 116.89401 | 9264 ft | 290 kts | 62° |
| 2026-04-22 13:50 | 39.59236 | 116.90960 | 9808 ft | 291 kts | 62° |
| 2026-04-22 13:50 | 39.60434 | 116.94131 | 10708 ft | 300 kts | 61° |
| 2026-04-22 13:50 | 39.61378 | 116.96616 | 11076 ft | 318 kts | 61° |
| 2026-04-22 13:50 | 39.62395 | 116.99218 | 11385 ft | 334 kts | 56° |
| 2026-04-22 13:51 | 39.63959 | 117.01469 | 11683 ft | 343 kts | 32° |
| 2026-04-22 13:51 | 39.66152 | 117.02741 | 12012 ft | 351 kts | 9° |
| 2026-04-22 13:51 | 39.68583 | 117.02811 | 12547 ft | 354 kts | 351° |
| 2026-04-22 13:51 | 39.71028 | 117.02392 | 13244 ft | 357 kts | 351° |
| 2026-04-22 13:52 | 39.73508 | 117.02005 | 13950 ft | 359 kts | 351° |
| 2026-04-22 13:52 | 39.75994 | 117.01627 | 14489 ft | 365 kts | 351° |
| 2026-04-22 13:52 | 39.78557 | 117.01242 | 15050 ft | 370 kts | 352° |
| 2026-04-22 13:52 | 39.81116 | 117.00856 | 15658 ft | 373 kts | 351° |
| 2026-04-22 13:53 | 39.83698 | 117.00469 | 16273 ft | 375 kts | 351° |
| 2026-04-22 13:53 | 39.86299 | 117.00079 | 16885 ft | 377 kts | 351° |
| 2026-04-22 13:53 | 39.88899 | 116.99688 | 17472 ft | 379 kts | 351° |
| 2026-04-22 13:53 | 39.91508 | 116.99294 | 18005 ft | 382 kts | 351° |
| 2026-04-22 13:54 | 39.94179 | 116.98892 | 18556 ft | 385 kts | 351° |
| 2026-04-22 13:54 | 39.96818 | 116.98495 | 19087 ft | 387 kts | 351° |
| 2026-04-22 13:54 | 39.99533 | 116.98084 | 19532 ft | 392 kts | 351° |
| 2026-04-22 13:54 | 40.02253 | 116.97674 | 19696 ft | 395 kts | 351° |
| 2026-04-22 13:55 | 40.04954 | 116.97265 | 19690 ft | 395 kts | 351° |
| 2026-04-22 13:55 | 40.07690 | 116.96851 | 19704 ft | 395 kts | 351° |
| 2026-04-22 13:55 | 40.10418 | 116.96439 | 19709 ft | 395 kts | 351° |
| 2026-04-22 13:55 | 40.13134 | 116.96027 | 19699 ft | 395 kts | 351° |
| 2026-04-22 13:56 | 40.15891 | 116.95612 | 19700 ft | 395 kts | 351° |
| 2026-04-22 13:56 | 40.18603 | 116.95203 | 19705 ft | 394 kts | 351° |
| 2026-04-22 13:56 | 40.21310 | 116.94794 | 19768 ft | 397 kts | 351° |
| 2026-04-22 13:56 | 40.24089 | 116.94373 | 20224 ft | 400 kts | 351° |
| 2026-04-22 13:57 | 40.26844 | 116.93956 | 20755 ft | 401 kts | 351° |
| 2026-04-22 13:57 | 40.29635 | 116.93531 | 21170 ft | 405 kts | 350° |
| 2026-04-22 13:57 | 40.32431 | 116.93104 | 21596 ft | 409 kts | 350° |
| 2026-04-22 13:57 | 40.35266 | 116.92670 | 22004 ft | 412 kts | 350° |
| 2026-04-22 13:58 | 40.38096 | 116.92237 | 22416 ft | 415 kts | 350° |
| 2026-04-22 13:58 | 40.41003 | 116.91794 | 22810 ft | 419 kts | 350° |
| 2026-04-22 13:58 | 40.43915 | 116.91346 | 23192 ft | 422 kts | 350° |
| 2026-04-22 13:58 | 40.46807 | 116.90783 | 23585 ft | 424 kts | 347° |
| 2026-04-22 13:59 | 40.49694 | 116.90015 | 23976 ft | 425 kts | 344° |
| 2026-04-22 13:59 | 40.52563 | 116.89040 | 24363 ft | 427 kts | 341° |
| 2026-04-22 13:59 | 40.55425 | 116.87969 | 24747 ft | 429 kts | 341° |
| 2026-04-22 13:59 | 40.58294 | 116.86872 | 25105 ft | 431 kts | 341° |
| 2026-04-22 14:00 | 40.61172 | 116.85770 | 25435 ft | 433 kts | 341° |
| 2026-04-22 14:00 | 40.64083 | 116.84656 | 25766 ft | 436 kts | 341° |
| 2026-04-22 14:00 | 40.66982 | 116.83548 | 26086 ft | 437 kts | 341° |
| 2026-04-22 14:00 | 40.69901 | 116.82434 | 26371 ft | 440 kts | 341° |
| 2026-04-22 14:01 | 40.72867 | 116.81397 | 26646 ft | 443 kts | 345° |
| 2026-04-22 14:01 | 40.75918 | 116.80720 | 26911 ft | 448 kts | 351° |
| 2026-04-22 14:01 | 40.79017 | 116.80441 | 27191 ft | 451 kts | 356° |
| 2026-04-22 14:01 | 40.82169 | 116.80503 | 27561 ft | 451 kts | 359° |
| 2026-04-22 14:02 | 40.85293 | 116.80661 | 27939 ft | 450 kts | 359° |
| 2026-04-22 14:02 | 40.88440 | 116.80841 | 28302 ft | 450 kts | 359° |
| 2026-04-22 14:02 | 40.91563 | 116.81016 | 28658 ft | 449 kts | 359° |
| 2026-04-22 14:02 | 40.94667 | 116.81187 | 29015 ft | 448 kts | 360° |
| 2026-04-22 14:03 | 40.97766 | 116.81350 | 29341 ft | 448 kts | 360° |
| 2026-04-22 14:03 | 41.00885 | 116.81517 | 29617 ft | 449 kts | 360° |
| 2026-04-22 14:03 | 41.03992 | 116.81682 | 29867 ft | 450 kts | 360° |
| 2026-04-22 14:03 | 41.07131 | 116.81847 | 30091 ft | 452 kts | 360° |
| 2026-04-22 14:04 | 41.10263 | 116.82011 | 30309 ft | 453 kts | 360° |
| 2026-04-22 14:04 | 41.13402 | 116.82177 | 30558 ft | 453 kts | 360° |
| 2026-04-22 14:04 | 41.16556 | 116.82343 | 30793 ft | 454 kts | 360° |
| 2026-04-22 14:04 | 41.19716 | 116.82510 | 30995 ft | 455 kts | 360° |
| 2026-04-22 14:05 | 41.26080 | 116.82844 | 31084 ft | 457 kts | 360° |
| 2026-04-22 14:06 | 41.35577 | 116.83347 | 31091 ft | 456 kts | 359° |
| 2026-04-22 14:06 | 41.41876 | 116.83675 | 31093 ft | 456 kts | 359° |
| 2026-04-22 14:07 | 41.48199 | 116.84007 | 31094 ft | 455 kts | 359° |
| 2026-04-22 14:07 | 41.54544 | 116.84341 | 31098 ft | 455 kts | 359° |
| 2026-04-22 14:08 | 41.60829 | 116.84791 | 31088 ft | 457 kts | 5° |
| 2026-04-22 14:08 | 41.66954 | 116.87412 | 31090 ft | 467 kts | 24° |
| 2026-04-22 14:09 | 41.72141 | 116.92700 | 31088 ft | 476 kts | 44° |
| 2026-04-22 14:09 | 41.75741 | 117.00047 | 31099 ft | 475 kts | 61° |
| 2026-04-22 14:10 | 41.78479 | 117.08028 | 31097 ft | 472 kts | 62° |
| 2026-04-22 14:10 | 41.81179 | 117.15981 | 31094 ft | 472 kts | 62° |
| 2026-04-22 14:11 | 41.83923 | 117.23975 | 31093 ft | 472 kts | 62° |
| 2026-04-22 14:11 | 41.86660 | 117.31929 | 31094 ft | 472 kts | 62° |
| 2026-04-22 14:12 | 41.89402 | 117.39906 | 31093 ft | 472 kts | 62° |
| 2026-04-22 14:12 | 41.92142 | 117.47912 | 31091 ft | 472 kts | 62° |
| 2026-04-22 14:13 | 41.94862 | 117.55868 | 31093 ft | 472 kts | 62° |
| 2026-04-22 14:13 | 41.97587 | 117.63866 | 31097 ft | 472 kts | 62° |
| 2026-04-22 14:14 | 42.00297 | 117.71864 | 31096 ft | 472 kts | 63° |
| 2026-04-22 14:14 | 42.03006 | 117.79874 | 31096 ft | 472 kts | 63° |
| 2026-04-22 14:15 | 42.05717 | 117.87907 | 31096 ft | 471 kts | 62° |
| 2026-04-22 14:15 | 42.08411 | 117.95920 | 31096 ft | 471 kts | 62° |
| 2026-04-22 14:16 | 42.11104 | 118.03914 | 31096 ft | 471 kts | 62° |
| 2026-04-22 14:16 | 42.13813 | 118.11921 | 31096 ft | 472 kts | 62° |
| 2026-04-22 14:17 | 42.16507 | 118.19973 | 31096 ft | 472 kts | 62° |
| 2026-04-22 14:17 | 42.19235 | 118.27964 | 31100 ft | 471 kts | 60° |
| 2026-04-22 14:18 | 42.22113 | 118.35865 | 31095 ft | 471 kts | 60° |
| 2026-04-22 14:18 | 42.24995 | 118.43774 | 31099 ft | 471 kts | 60° |
| 2026-04-22 14:19 | 42.27860 | 118.51670 | 31104 ft | 471 kts | 60° |
| 2026-04-22 14:19 | 42.30722 | 118.59602 | 31104 ft | 471 kts | 60° |
| 2026-04-22 14:20 | 42.35009 | 118.71537 | 31114 ft | 471 kts | 60° |
| 2026-04-22 14:20 | 42.37851 | 118.79507 | 31103 ft | 471 kts | 60° |
| 2026-04-22 14:21 | 42.41627 | 118.90083 | 31105 ft | 471 kts | 60° |
| 2026-04-22 14:22 | 42.45882 | 119.02053 | 31104 ft | 471 kts | 60° |
| 2026-04-22 14:23 | 42.50583 | 119.15318 | 31109 ft | 471 kts | 60° |
| 2026-04-22 14:23 | 42.53412 | 119.23338 | 31105 ft | 471 kts | 60° |
| 2026-04-22 14:24 | 42.56207 | 119.31292 | 31109 ft | 471 kts | 60° |
| 2026-04-22 14:24 | 42.59025 | 119.39329 | 31104 ft | 471 kts | 60° |
| 2026-04-22 14:25 | 42.61820 | 119.47317 | 31106 ft | 472 kts | 60° |
| 2026-04-22 14:25 | 42.64634 | 119.55386 | 31105 ft | 471 kts | 60° |
| 2026-04-22 14:26 | 42.67421 | 119.63393 | 31105 ft | 472 kts | 60° |
| 2026-04-22 14:26 | 42.70193 | 119.71419 | 31100 ft | 472 kts | 61° |
| 2026-04-22 14:27 | 42.72977 | 119.79501 | 31097 ft | 473 kts | 61° |
| 2026-04-22 14:27 | 42.75764 | 119.87589 | 31101 ft | 473 kts | 61° |
| 2026-04-22 14:28 | 42.78077 | 119.94325 | 31106 ft | 474 kts | 60° |
| 2026-04-22 14:28 | 42.81330 | 120.03812 | 31096 ft | 475 kts | 61° |
| 2026-04-22 14:29 | 42.84125 | 120.11996 | 31104 ft | 477 kts | 60° |
| 2026-04-22 14:29 | 42.86897 | 120.20136 | 31039 ft | 477 kts | 60° |
| 2026-04-22 14:29 | 42.88289 | 120.24228 | 30781 ft | 476 kts | 60° |
| 2026-04-22 14:30 | 42.89683 | 120.28332 | 30515 ft | 476 kts | 60° |
| 2026-04-22 14:30 | 42.92458 | 120.36527 | 29993 ft | 476 kts | 60° |
| 2026-04-22 14:31 | 42.95217 | 120.44701 | 29465 ft | 475 kts | 60° |
| 2026-04-22 14:31 | 42.96593 | 120.48782 | 29208 ft | 476 kts | 60° |
| 2026-04-22 14:31 | 42.98000 | 120.52828 | 29110 ft | 475 kts | 59° |
| 2026-04-22 14:32 | 43.00896 | 120.60892 | 29104 ft | 475 kts | 58° |
| 2026-04-22 14:32 | 43.03794 | 120.68985 | 29102 ft | 475 kts | 59° |